createdAt,value
2023-01-03T00:00:32.671Z,100184.99
2023-01-03T00:01:35.398Z,100183.77
2023-01-03T00:02:38.077Z,100178.66
2023-01-03T00:03:41.380Z,100183.77
2023-01-03T00:04:49.223Z,100176.72
2023-01-03T00:05:49.880Z,100174.67
2023-01-03T00:06:53.532Z,100178.95
2023-01-03T00:07:56.904Z,100181.20
2023-01-03T00:09:01.164Z,100178.49
2023-01-03T00:10:06.998Z,100179.78
2023-01-03T00:11:17.595Z,100184.70
2023-01-03T00:12:30.504Z,100181.30
2023-01-03T00:13:29.880Z,100179.55
2023-01-03T00:14:34.901Z,100186.55
2023-01-03T00:15:38.146Z,100185.48
2023-01-03T00:16:40.945Z,100183.19
2023-01-03T00:17:43.839Z,100183.19
2023-01-03T00:18:46.234Z,100176.20
2023-01-03T00:19:48.806Z,100176.30
2023-01-03T00:20:52.215Z,100173.84
2023-01-03T00:21:54.674Z,100177.24
2023-01-03T00:22:56.694Z,100172.83
2023-01-03T00:23:58.855Z,100179.02
2023-01-03T00:25:00.894Z,100171.64
2023-01-03T00:26:15.435Z,100178.42
2023-01-03T00:27:17.741Z,100171.64
2023-01-03T00:28:19.989Z,100173.48
2023-01-03T00:29:22.336Z,100169.06
2023-01-03T00:30:24.906Z,100173.53
2023-01-03T00:31:27.125Z,100170.10
2023-01-03T00:32:29.356Z,100168.06
2023-01-03T00:33:31.948Z,100171.48
2023-01-03T00:34:35.159Z,100164.48
2023-01-03T00:35:37.359Z,100159.23
2023-01-03T00:36:40.702Z,100164.30
2023-01-03T00:37:50.413Z,100160.19
2023-01-03T00:38:54.886Z,100165.59
2023-01-03T00:39:57.014Z,100162.23
2023-01-03T00:41:08.694Z,100160.70
2023-01-03T00:42:11.296Z,100163.69
2023-01-03T00:43:28.705Z,100157.73
2023-01-03T00:44:31.401Z,100150.41
2023-01-03T00:45:35.718Z,100150.97
2023-01-03T00:46:38.620Z,100146.02
2023-01-03T00:47:42.546Z,100141.67
2023-01-03T00:48:45.310Z,100149.78
2023-01-03T00:49:47.450Z,100137.73
2023-01-03T00:50:50.439Z,100137.73
2023-01-03T00:51:54.620Z,100141.20
2023-01-03T00:52:56.839Z,100130.08
2023-01-03T00:54:00.880Z,100125.83
2023-01-03T00:55:03.595Z,100129.30
2023-01-03T00:56:11.893Z,100126.80
2023-01-03T00:57:14.164Z,100126.80
2023-01-03T00:58:16.495Z,100128.47
2023-01-03T00:59:20.121Z,100125.83
2023-01-03T01:00:22.549Z,100127.74
2023-01-03T01:01:27.955Z,100127.74
2023-01-03T01:02:30.511Z,100119.98
2023-01-03T01:03:33.710Z,100117.55
2023-01-03T01:04:36.558Z,100117.55
2023-01-03T01:05:38.600Z,100121.80
2023-01-03T01:06:47.434Z,100120.09
2023-01-03T01:07:49.804Z,100127.89
2023-01-03T01:08:54.191Z,100119.31
2023-01-03T01:09:56.444Z,100115.93
2023-01-03T01:11:01.796Z,100115.93
2023-01-03T01:12:06.633Z,100114.23
2023-01-03T01:13:08.731Z,100118.67
2023-01-03T01:14:20.725Z,100117.78
2023-01-03T01:15:23.048Z,100110.14
2023-01-03T01:16:28.710Z,100108.42
2023-01-03T01:17:31.024Z,100112.95
2023-01-03T01:18:34.695Z,100104.31
2023-01-03T01:20:50.518Z,100105.05
2023-01-03T01:21:53.010Z,100100.36
2023-01-03T01:22:55.583Z,100094.45
2023-01-03T01:23:59.457Z,100094.41
2023-01-03T01:25:02.514Z,100091.78
2023-01-03T01:26:06.819Z,100084.17
2023-01-03T01:27:09.262Z,100085.83
2023-01-03T01:28:13.087Z,100088.27
2023-01-03T01:29:16.427Z,100081.30
2023-01-03T01:30:19.411Z,100083.89
2023-01-03T01:31:25.284Z,100079.73
2023-01-03T01:32:27.440Z,100079.00
2023-01-03T01:33:32.821Z,100077.38
2023-01-03T01:34:35.607Z,100070.45
2023-01-03T01:35:37.560Z,100073.92
2023-01-03T01:36:42.468Z,100064.51
2023-01-03T01:37:44.656Z,100071.57
2023-01-03T01:38:48.346Z,100066.41
2023-01-03T01:39:50.354Z,100064.20
2023-01-03T01:40:52.867Z,100064.20
2023-01-03T01:42:20.287Z,100068.44
2023-01-03T01:43:41.645Z,100066.78
2023-01-03T01:44:59.902Z,100070.28
2023-01-03T01:46:24.134Z,100071.02
2023-01-03T01:47:36.411Z,100060.61
2023-01-03T01:48:39.466Z,100067.73
2023-01-03T01:49:42.814Z,100074.70
2023-01-03T01:50:48.829Z,100071.25
2023-01-03T01:51:52.341Z,100069.53
2023-01-03T01:52:58.278Z,100076.41
2023-01-03T01:54:03.977Z,100074.78
2023-01-03T01:55:10.730Z,100069.75
2023-01-03T01:56:27.048Z,100067.91
2023-01-03T01:57:30.852Z,100058.45
2023-01-03T01:58:36.518Z,100063.63
2023-01-03T01:59:39.884Z,100061.05
2023-01-03T02:00:44.174Z,100055.88
2023-01-03T02:01:49.451Z,100057.59
2023-01-03T02:02:53.867Z,100050.92
2023-01-03T02:04:07.249Z,100047.52
2023-01-03T02:05:09.916Z,100049.27
2023-01-03T02:06:15.210Z,100044.84
2023-01-03T02:07:20.025Z,100033.64
2023-01-03T02:08:24.430Z,100034.44
2023-01-03T02:09:26.692Z,100030.15
2023-01-03T02:10:51.634Z,100031.85
2023-01-03T02:12:19.367Z,100030.20
2023-01-03T02:13:52.923Z,100023.33
2023-01-03T02:15:15.363Z,100026.56
2023-01-03T02:16:47.906Z,100023.10
2023-01-03T02:17:56.459Z,100017.15
2023-01-03T02:19:11.909Z,100022.36
2023-01-03T02:20:30.944Z,100017.98
2023-01-03T02:21:39.801Z,100017.95
2023-01-03T02:23:10.407Z,100018.03
2023-01-03T02:24:35.761Z,100015.45
2023-01-03T02:26:01.542Z,100020.56
2023-01-03T02:27:24.199Z,100018.03
2023-01-03T02:28:47.041Z,100021.62
2023-01-03T02:30:09.622Z,100025.08
2023-01-03T02:31:23.321Z,100023.32
2023-01-03T02:33:54.881Z,100017.86
2023-01-03T02:35:12.773Z,100005.25
2023-01-03T02:36:40.415Z,100009.63
2023-01-03T02:37:58.436Z,100004.42
2023-01-03T02:39:13.251Z,100005.25
2023-01-03T02:40:21.996Z,100008.75
2023-01-03T02:41:43.048Z,99995.89
2023-01-03T02:42:58.346Z,99997.52
2023-01-03T02:44:19.580Z,100000.10
2023-01-03T02:45:29.522Z,99998.34
2023-01-03T02:46:38.521Z,99996.81
2023-01-03T02:47:57.874Z,99995.84
2023-01-03T02:49:07.047Z,99986.40
2023-01-03T02:50:11.975Z,99984.74
2023-01-03T02:51:20.631Z,99987.42
2023-01-03T02:52:26.542Z,99986.40
2023-01-03T02:53:32.488Z,99991.43
2023-01-03T02:54:57.092Z,99987.98
2023-01-03T02:56:03.576Z,99980.36
2023-01-03T02:57:09.580Z,99970.91
2023-01-03T02:58:21.543Z,99983.81
2023-01-03T02:59:29.958Z,99978.70
2023-01-03T03:00:34.421Z,99980.28
2023-01-03T03:01:41.168Z,99984.52
2023-01-03T03:02:49.177Z,99982.77
2023-01-03T03:03:52.938Z,99977.73
2023-01-03T03:04:57.197Z,99976.99
2023-01-03T03:06:03.049Z,99971.70
2023-01-03T03:07:14.303Z,99982.16
2023-01-03T03:08:16.493Z,99982.11
2023-01-03T03:09:18.585Z,99977.13
2023-01-03T03:10:41.256Z,99967.68
2023-01-03T03:12:03.183Z,99965.06
2023-01-03T03:13:17.111Z,99969.48
2023-01-03T03:14:28.979Z,99972.93
2023-01-03T03:15:34.864Z,99966.89
2023-01-03T03:16:50.905Z,99972.05
2023-01-03T03:17:56.882Z,99967.77
2023-01-03T03:19:01.301Z,99968.70
2023-01-03T03:20:28.450Z,99974.72
2023-01-03T03:21:52.377Z,99967.11
2023-01-03T03:23:17.291Z,99967.11
2023-01-03T03:24:43.212Z,99968.83
2023-01-03T03:25:52.274Z,99958.58
2023-01-03T03:26:57.871Z,99952.77
2023-01-03T03:28:22.416Z,99956.27
2023-01-03T03:29:27.840Z,99952.10
2023-01-03T03:30:34.486Z,99952.10
2023-01-03T03:31:40.500Z,99946.11
2023-01-03T03:32:45.915Z,99953.85
2023-01-03T03:33:57.793Z,99943.58
2023-01-03T03:35:02.991Z,99947.94
2023-01-03T03:36:12.261Z,99945.23
2023-01-03T03:37:18.330Z,99960.71
2023-01-03T03:38:24.149Z,99953.06
2023-01-03T03:39:47.693Z,99958.25
2023-01-03T03:41:18.654Z,99953.18
2023-01-03T03:42:43.048Z,99951.48
2023-01-03T03:44:09.230Z,99956.72
2023-01-03T03:45:21.208Z,99957.66
2023-01-03T03:46:28.658Z,99952.51
2023-01-03T03:47:51.663Z,99940.48
2023-01-03T03:49:27.808Z,99945.64
2023-01-03T03:50:34.521Z,99948.23
2023-01-03T03:51:39.670Z,99944.89
2023-01-03T03:52:45.605Z,99940.66
2023-01-03T03:53:49.383Z,99934.74
2023-01-03T03:54:55.360Z,99929.55
2023-01-03T03:56:01.277Z,99943.15
2023-01-03T03:57:19.107Z,99933.70
2023-01-03T03:58:25.225Z,99921.81
2023-01-03T03:59:29.454Z,99926.09
2023-01-03T04:00:34.805Z,99926.13
2023-01-03T04:01:40.303Z,99923.56
2023-01-03T04:02:49.113Z,99924.39
2023-01-03T04:03:55.643Z,99909.05
2023-01-03T04:05:01.033Z,99925.22
2023-01-03T04:06:07.623Z,99918.28
2023-01-03T04:07:10.530Z,99914.75
2023-01-03T04:08:12.687Z,99921.69
2023-01-03T04:09:17.535Z,99919.86
2023-01-03T04:10:22.920Z,99910.42
2023-01-03T04:11:25.577Z,99917.21
2023-01-03T04:12:28.109Z,99925.02
2023-01-03T04:13:30.343Z,99924.14
2023-01-03T04:14:32.988Z,99925.02
2023-01-03T04:15:34.998Z,99918.16
2023-01-03T04:16:37.408Z,99908.72
2023-01-03T04:17:39.525Z,99909.47
2023-01-03T04:18:41.529Z,99911.30
2023-01-03T04:19:43.355Z,99901.91
2023-01-03T04:20:46.414Z,99901.78
2023-01-03T04:21:48.408Z,99910.42
2023-01-03T04:22:50.456Z,99907.13
2023-01-03T04:23:52.648Z,99899.36
2023-01-03T04:24:54.771Z,99900.19
2023-01-03T04:25:56.990Z,99908.64
2023-01-03T04:26:59.384Z,99902.69
2023-01-03T04:28:01.286Z,99907.02
2023-01-03T04:29:05.100Z,99896.54
2023-01-03T04:30:08.460Z,99897.41
2023-01-03T04:31:10.929Z,99900.86
2023-01-03T04:32:13.769Z,99896.63
2023-01-03T04:33:16.667Z,99902.61
2023-01-03T04:34:18.555Z,99896.66
2023-01-03T04:35:21.042Z,99895.00
2023-01-03T04:36:23.345Z,99895.91
2023-01-03T04:37:25.668Z,99899.28
2023-01-03T04:38:28.898Z,99899.23
2023-01-03T04:39:31.546Z,99895.00
2023-01-03T04:40:36.022Z,99905.23
2023-01-03T04:41:38.587Z,99907.05
2023-01-03T04:42:58.735Z,99911.38
2023-01-03T04:44:04.128Z,99914.08
2023-01-03T04:45:09.280Z,99919.31
2023-01-03T04:46:12.369Z,99918.56
2023-01-03T04:47:15.062Z,99916.97
2023-01-03T04:48:18.224Z,99919.55
2023-01-03T04:49:21.423Z,99917.09
2023-01-03T04:50:24.421Z,99921.37
2023-01-03T04:51:27.431Z,99906.78
2023-01-03T04:52:30.097Z,99913.64
2023-01-03T04:53:32.220Z,99913.79
2023-01-03T04:54:34.178Z,99906.97
2023-01-03T04:55:36.412Z,99901.85
2023-01-03T04:56:39.614Z,99905.30
2023-01-03T04:57:41.821Z,99909.55
2023-01-03T04:58:43.823Z,99910.41
2023-01-03T04:59:46.129Z,99900.91
2023-01-03T05:00:49.784Z,99896.59
2023-01-03T05:01:52.756Z,99900.79
2023-01-03T05:02:55.064Z,99903.30
2023-01-03T05:03:59.513Z,99904.96
2023-01-03T05:05:01.766Z,99900.67
2023-01-03T05:06:07.781Z,99905.03
2023-01-03T05:07:10.532Z,99893.02
2023-01-03T05:08:13.571Z,99895.72
2023-01-03T05:09:15.619Z,99890.48
2023-01-03T05:10:18.135Z,99881.88
2023-01-03T05:11:20.731Z,99885.25
2023-01-03T05:12:24.025Z,99886.00
2023-01-03T05:13:26.347Z,99886.92
2023-01-03T05:14:28.613Z,99882.67
2023-01-03T05:15:33.305Z,99882.67
2023-01-03T05:16:35.767Z,99884.26
2023-01-03T05:17:38.131Z,99879.98
2023-01-03T05:18:41.959Z,99887.70
2023-01-03T05:20:03.364Z,99879.11
2023-01-03T05:21:32.734Z,99883.39
2023-01-03T05:22:39.410Z,99871.37
2023-01-03T05:24:00.149Z,99879.94
2023-01-03T05:25:21.110Z,99868.80
2023-01-03T05:26:24.511Z,99872.30
2023-01-03T05:27:27.633Z,99862.10
2023-01-03T05:28:30.011Z,99856.08
2023-01-03T05:29:36.464Z,99857.70
2023-01-03T05:30:38.938Z,99856.78
2023-01-03T05:31:41.225Z,99865.34
2023-01-03T05:32:43.271Z,99859.37
2023-01-03T05:33:45.794Z,99864.64
2023-01-03T05:34:47.867Z,99870.70
2023-01-03T05:35:50.371Z,99868.95
2023-01-03T05:36:52.793Z,99868.95
2023-01-03T05:37:54.876Z,99867.26
2023-01-03T05:38:57.600Z,99871.53
2023-01-03T05:39:59.851Z,99877.45
2023-01-03T05:41:02.829Z,99868.80
2023-01-03T05:42:05.597Z,99867.09
2023-01-03T05:43:08.405Z,99869.67
2023-01-03T05:44:10.671Z,99867.97
2023-01-03T05:45:12.878Z,99865.44
2023-01-03T05:46:15.338Z,99874.11
2023-01-03T05:47:17.700Z,99868.88
2023-01-03T05:48:21.396Z,99875.73
2023-01-03T05:49:23.535Z,99879.15
2023-01-03T05:50:26.922Z,99877.45
2023-01-03T05:51:29.375Z,99876.61
2023-01-03T05:52:32.011Z,99885.89
2023-01-03T05:53:33.942Z,99875.50
2023-01-03T05:54:35.925Z,99868.67
2023-01-03T05:55:38.662Z,99873.00
2023-01-03T05:56:41.865Z,99867.02
2023-01-03T05:57:46.090Z,99860.11
2023-01-03T05:58:48.661Z,99860.11
2023-01-03T05:59:50.773Z,99870.27
2023-01-03T06:00:52.983Z,99862.61
2023-01-03T06:01:55.202Z,99874.55
2023-01-03T06:02:57.642Z,99870.97
2023-01-03T06:04:00.937Z,99876.83
2023-01-03T06:05:03.417Z,99885.34
2023-01-03T06:06:09.027Z,99876.86
2023-01-03T06:07:12.288Z,99877.66
2023-01-03T06:08:14.450Z,99880.19
2023-01-03T06:09:16.794Z,99879.14
2023-01-03T06:10:19.111Z,99882.55
2023-01-03T06:11:21.931Z,99871.58
2023-01-03T06:12:26.908Z,99883.59
2023-01-03T06:13:30.315Z,99884.39
2023-01-03T06:14:32.246Z,99886.05
2023-01-03T06:15:34.372Z,99883.52
2023-01-03T06:16:55.463Z,99878.19
2023-01-03T06:18:01.479Z,99886.66
2023-01-03T06:19:05.007Z,99883.02
2023-01-03T06:20:08.740Z,99877.91
2023-01-03T06:21:10.781Z,99883.08
2023-01-03T06:22:13.538Z,99878.75
2023-01-03T06:23:15.619Z,99886.48
2023-01-03T06:24:17.896Z,99882.89
2023-01-03T06:25:20.978Z,99881.10
2023-01-03T06:26:24.023Z,99885.34
2023-01-03T06:27:26.120Z,99887.83
2023-01-03T06:28:28.135Z,99884.45
2023-01-03T06:29:30.332Z,99886.03
2023-01-03T06:30:33.186Z,99883.35
2023-01-03T06:31:35.499Z,99886.47
2023-01-03T06:32:38.033Z,99871.86
2023-01-03T06:33:40.610Z,99877.02
2023-01-03T06:34:42.864Z,99885.88
2023-01-03T06:35:45.026Z,99875.56
2023-01-03T06:36:47.333Z,99875.70
2023-01-03T06:37:49.356Z,99878.62
2023-01-03T06:38:52.524Z,99876.02
2023-01-03T06:39:54.734Z,99875.34
2023-01-03T06:40:57.056Z,99877.95
2023-01-03T06:42:01.570Z,99876.34
2023-01-03T06:43:03.795Z,99872.81
2023-01-03T06:44:05.987Z,99877.91
2023-01-03T06:45:29.114Z,99876.86
2023-01-03T06:46:49.911Z,99875.15
2023-01-03T06:48:10.758Z,99879.40
2023-01-03T06:49:34.568Z,99879.34
2023-01-03T06:50:58.478Z,99871.56
2023-01-03T06:52:21.514Z,99878.33
2023-01-03T06:53:25.578Z,99875.61
2023-01-03T06:54:30.735Z,99878.37
2023-01-03T06:55:33.036Z,99879.16
2023-01-03T06:56:36.182Z,99882.61
2023-01-03T06:57:38.475Z,99880.17
2023-01-03T06:58:41.640Z,99886.27
2023-01-03T06:59:44.471Z,99882.89
2023-01-03T07:00:47.041Z,99885.52
2023-01-03T07:01:50.857Z,99894.96
2023-01-03T07:02:53.251Z,99894.13
2023-01-03T07:03:55.587Z,99884.64
2023-01-03T07:04:59.633Z,99885.42
2023-01-03T07:06:02.153Z,99888.75
2023-01-03T07:07:04.533Z,99884.45
2023-01-03T07:08:06.626Z,99873.22
2023-01-03T07:09:10.541Z,99879.89
2023-01-03T07:10:13.508Z,99875.52
2023-01-03T07:11:15.750Z,99883.16
2023-01-03T07:12:37.754Z,99874.53
2023-01-03T07:13:58.037Z,99876.97
2023-01-03T07:15:00.531Z,99876.83
2023-01-03T07:16:03.123Z,99872.44
2023-01-03T07:17:05.496Z,99868.97
2023-01-03T07:18:07.637Z,99864.55
2023-01-03T07:19:12.759Z,99860.06
2023-01-03T07:20:15.548Z,99884.23
2023-01-03T07:21:17.773Z,99885.98
2023-01-03T07:22:19.796Z,99888.77
2023-01-03T07:23:21.643Z,99891.68
2023-01-03T07:24:23.958Z,99895.37
2023-01-03T07:25:26.612Z,99894.64
2023-01-03T07:26:31.603Z,99898.97
2023-01-03T07:27:33.771Z,99895.52
2023-01-03T07:28:35.777Z,99896.39
2023-01-03T07:29:37.883Z,99901.47
2023-01-03T07:30:42.985Z,99904.91
2023-01-03T07:31:46.344Z,99913.49
2023-01-03T07:32:48.751Z,99901.47
2023-01-03T07:33:52.547Z,99906.52
2023-01-03T07:34:54.762Z,99910.77
2023-01-03T07:36:06.118Z,99908.14
2023-01-03T07:37:05.408Z,99915.69
2023-01-03T07:38:08.945Z,99917.25
2023-01-03T07:39:11.003Z,99919.59
2023-01-03T07:40:14.137Z,99911.65
2023-01-03T07:41:17.193Z,99911.53
2023-01-03T07:42:38.168Z,99926.88
2023-01-03T07:43:44.041Z,99917.13
2023-01-03T07:44:46.891Z,99923.05
2023-01-03T07:45:49.766Z,99926.36
2023-01-03T07:46:52.031Z,99913.22
2023-01-03T07:47:54.268Z,99924.28
2023-01-03T07:48:58.417Z,99918.13
2023-01-03T07:50:00.465Z,99921.53
2023-01-03T07:51:03.251Z,99919.72
2023-01-03T07:52:06.063Z,99928.31
2023-01-03T07:53:09.192Z,99935.13
2023-01-03T07:54:12.071Z,99931.55
2023-01-03T07:55:14.552Z,99921.05
2023-01-03T07:56:20.301Z,99922.69
2023-01-03T07:57:23.229Z,99925.28
2023-01-03T07:58:25.138Z,99929.62
2023-01-03T07:59:27.216Z,99922.63
2023-01-03T08:00:29.731Z,99919.28
2023-01-03T08:01:33.352Z,99922.69
2023-01-03T08:02:36.000Z,99922.69
2023-01-03T08:03:38.881Z,99918.28
2023-01-03T08:04:41.285Z,99925.98
2023-01-03T08:05:43.651Z,99931.92
2023-01-03T08:06:47.575Z,99937.09
2023-01-03T08:07:51.148Z,99930.17
2023-01-03T08:09:12.075Z,99926.88
2023-01-03T08:10:35.145Z,99919.88
2023-01-03T08:11:56.613Z,99918.00
2023-01-03T08:13:17.400Z,99914.59
2023-01-03T08:14:25.334Z,99909.41
2023-01-03T08:15:23.988Z,99909.53
2023-01-03T08:16:26.765Z,99911.19
2023-01-03T08:17:29.610Z,99914.48
2023-01-03T08:18:32.027Z,99918.00
2023-01-03T08:19:37.706Z,99918.00
2023-01-03T08:20:38.921Z,99920.64
2023-01-03T08:21:41.154Z,99917.24
2023-01-03T08:22:43.935Z,99918.06
2023-01-03T08:23:48.067Z,99913.77
2023-01-03T08:24:50.992Z,99906.83
2023-01-03T08:26:02.519Z,99920.70
2023-01-03T08:27:05.131Z,99913.72
2023-01-03T08:28:08.801Z,99913.72
2023-01-03T08:29:11.189Z,99927.52
2023-01-03T08:30:13.918Z,99920.47
2023-01-03T08:31:22.515Z,99924.66
2023-01-03T08:32:25.008Z,99920.42
2023-01-03T08:33:30.939Z,99908.30
2023-01-03T08:34:36.543Z,99913.36
2023-01-03T08:35:42.368Z,99909.00
2023-01-03T08:36:54.740Z,99910.67
2023-01-03T08:38:00.298Z,99908.01
2023-01-03T08:39:05.853Z,99911.41
2023-01-03T08:40:10.648Z,99907.83
2023-01-03T08:41:16.909Z,99908.08
2023-01-03T08:42:22.553Z,99912.42
2023-01-03T08:43:25.050Z,99914.95
2023-01-03T08:44:27.517Z,99906.30
2023-01-03T08:45:30.002Z,99906.30
2023-01-03T08:46:33.938Z,99915.77
2023-01-03T08:47:36.647Z,99913.95
2023-01-03T08:48:39.220Z,99910.37
2023-01-03T08:49:42.169Z,99890.61
2023-01-03T08:50:46.091Z,99899.06
2023-01-03T08:51:48.346Z,99900.78
2023-01-03T08:52:50.956Z,99906.81
2023-01-03T08:53:53.836Z,99901.53
2023-01-03T08:54:56.145Z,99892.83
2023-01-03T08:55:58.486Z,99898.93
2023-01-03T08:57:01.446Z,99896.18
2023-01-03T08:58:03.761Z,99903.92
2023-01-03T08:59:06.636Z,99905.56
2023-01-03T09:00:10.725Z,99905.59
2023-01-03T09:01:13.732Z,99906.33
2023-01-03T09:02:17.014Z,99922.86
2023-01-03T09:03:19.566Z,99919.58
2023-01-03T09:04:22.902Z,99908.73
2023-01-03T09:05:27.193Z,99911.14
2023-01-03T09:06:30.419Z,99900.89
2023-01-03T09:07:33.058Z,99909.50
2023-01-03T09:08:37.532Z,99902.59
2023-01-03T09:09:39.788Z,99898.28
2023-01-03T09:10:47.110Z,99905.05
2023-01-03T09:11:46.064Z,99918.77
2023-01-03T09:12:48.656Z,99911.97
2023-01-03T09:13:53.026Z,99910.27
2023-01-03T09:14:56.347Z,99933.14
2023-01-03T09:16:08.680Z,99915.47
2023-01-03T09:17:11.321Z,99919.04
2023-01-03T09:18:14.326Z,99903.06
2023-01-03T09:19:17.101Z,99905.23
2023-01-03T09:20:19.961Z,99900.90
2023-01-03T09:21:22.244Z,99904.39
2023-01-03T09:22:24.270Z,99905.59
2023-01-03T09:23:26.893Z,99896.51
2023-01-03T09:24:29.095Z,99889.05
2023-01-03T09:25:36.853Z,99891.95
2023-01-03T09:27:38.001Z,99906.52
2023-01-03T09:28:40.248Z,99904.23
2023-01-03T09:29:43.245Z,99893.62
2023-01-03T09:30:46.884Z,99903.15
2023-01-03T09:31:51.416Z,99907.09
2023-01-03T09:32:54.882Z,99909.02
2023-01-03T09:34:02.721Z,99900.53
2023-01-03T09:35:07.617Z,99899.19
2023-01-03T09:36:10.231Z,99893.00
2023-01-03T09:37:12.425Z,99885.19
2023-01-03T09:38:14.936Z,99889.61
2023-01-03T09:39:17.370Z,99894.73
2023-01-03T09:40:19.708Z,99889.05
2023-01-03T09:41:24.021Z,99879.90
2023-01-03T09:42:47.084Z,99878.22
2023-01-03T09:43:52.992Z,99901.17
2023-01-03T09:44:55.360Z,99881.13
2023-01-03T09:45:59.381Z,99884.58
2023-01-03T09:47:03.206Z,99893.03
2023-01-03T09:48:06.567Z,99889.31
2023-01-03T09:49:11.902Z,99887.14
2023-01-03T09:50:38.855Z,99890.91
2023-01-03T09:51:50.419Z,99893.61
2023-01-03T09:53:11.215Z,99885.89
2023-01-03T09:54:38.425Z,99892.34
2023-01-03T09:56:06.895Z,99879.78
2023-01-03T09:57:35.034Z,99882.97
2023-01-03T09:58:57.009Z,99881.25
2023-01-03T10:00:18.752Z,99884.11
2023-01-03T10:02:01.719Z,99882.14
2023-01-03T10:03:32.372Z,99882.27
2023-01-03T10:04:55.147Z,99883.33
2023-01-03T10:06:07.444Z,99878.81
2023-01-03T10:07:16.469Z,99876.05
2023-01-03T10:08:43.528Z,99878.75
2023-01-03T10:10:14.215Z,99875.46
2023-01-03T10:11:23.714Z,99866.53
2023-01-03T10:12:45.720Z,99871.01
2023-01-03T10:14:23.463Z,99876.21
2023-01-03T10:15:47.045Z,99860.56
2023-01-03T10:17:15.238Z,99856.95
2023-01-03T10:18:30.209Z,99870.98
2023-01-03T10:19:39.745Z,99867.59
2023-01-03T10:21:04.341Z,99862.76
2023-01-03T10:22:22.001Z,99870.59
2023-01-03T10:23:24.274Z,99860.52
2023-01-03T10:24:33.410Z,99881.46
2023-01-03T10:25:39.618Z,99871.59
2023-01-03T10:26:42.738Z,99857.33
2023-01-03T10:27:50.924Z,99863.23
2023-01-03T10:28:54.038Z,99861.33
2023-01-03T10:30:02.596Z,99867.45
2023-01-03T10:31:21.308Z,99865.77
2023-01-03T10:32:48.281Z,99858.36
2023-01-03T10:33:51.083Z,99859.51
2023-01-03T10:35:17.118Z,99859.51
2023-01-03T10:36:21.415Z,99860.70
2023-01-03T10:37:24.449Z,99858.03
2023-01-03T10:38:27.554Z,99884.14
2023-01-03T10:39:32.590Z,99858.55
2023-01-03T10:40:39.163Z,99866.16
2023-01-03T10:41:51.824Z,99873.80
2023-01-03T10:42:55.782Z,99875.89
2023-01-03T10:44:04.151Z,99875.69
2023-01-03T10:45:13.138Z,99865.28
2023-01-03T10:46:18.651Z,99861.78
2023-01-03T10:47:21.963Z,99876.22
2023-01-03T10:48:30.697Z,99877.38
2023-01-03T10:49:33.567Z,99873.48
2023-01-03T10:50:38.018Z,99868.91
2023-01-03T10:52:02.575Z,99884.38
2023-01-03T10:53:08.357Z,99883.05
2023-01-03T10:54:14.488Z,99878.34
2023-01-03T10:55:18.485Z,99866.73
2023-01-03T10:56:24.273Z,99926.55
2023-01-03T10:57:48.781Z,99884.20
2023-01-03T10:59:14.553Z,99920.16
2023-01-03T11:00:27.718Z,99887.23
2023-01-03T11:01:31.427Z,99909.03
2023-01-03T11:02:38.636Z,99893.58
2023-01-03T11:03:46.515Z,99897.98
2023-01-03T11:04:46.949Z,99936.61
2023-01-03T11:05:58.767Z,99889.78
2023-01-03T11:07:13.522Z,99928.05
2023-01-03T11:08:22.236Z,99913.16
2023-01-03T11:09:35.149Z,99950.61
2023-01-03T11:10:41.945Z,99977.77
2023-01-03T11:11:44.184Z,99914.12
2023-01-03T11:12:46.527Z,99913.39
2023-01-03T11:13:49.708Z,99910.73
2023-01-03T11:14:55.723Z,99912.72
2023-01-03T11:16:01.506Z,99914.91
2023-01-03T11:17:05.858Z,99921.83
2023-01-03T11:18:12.264Z,99924.81
2023-01-03T11:19:19.204Z,99918.79
2023-01-03T11:20:27.612Z,99917.95
2023-01-03T11:21:39.328Z,99908.92
2023-01-03T11:22:45.183Z,99912.80
2023-01-03T11:24:03.828Z,99909.94
2023-01-03T11:25:27.815Z,99922.78
2023-01-03T11:26:39.829Z,99912.86
2023-01-03T11:28:10.374Z,99912.22
2023-01-03T11:29:31.584Z,99949.42
2023-01-03T11:30:59.984Z,99923.97
2023-01-03T11:32:25.623Z,99931.86
2023-01-03T11:33:48.356Z,99933.77
2023-01-03T11:35:22.907Z,99934.01
2023-01-03T11:36:25.225Z,99912.30
2023-01-03T11:37:49.554Z,99911.34
2023-01-03T11:39:14.608Z,99944.92
2023-01-03T11:40:32.681Z,99930.29
2023-01-03T11:41:53.692Z,99921.71
2023-01-03T11:43:17.707Z,99940.34
2023-01-03T11:44:29.424Z,99930.88
2023-01-03T11:45:54.505Z,99926.55
2023-01-03T11:47:15.796Z,99936.14
2023-01-03T11:50:04.320Z,99925.36
2023-01-03T11:51:13.239Z,99945.65
2023-01-03T11:52:48.064Z,99924.69
2023-01-03T11:54:09.545Z,99934.42
2023-01-03T11:55:43.212Z,99937.22
2023-01-03T11:56:47.611Z,99929.66
2023-01-03T11:58:14.317Z,99931.73
2023-01-03T11:59:42.052Z,99931.73
2023-01-03T12:00:47.927Z,99941.38
2023-01-03T12:02:20.452Z,99944.70
2023-01-03T12:05:36.593Z,99942.14
2023-01-03T12:06:44.421Z,99939.55
2023-01-03T12:07:59.330Z,99953.55
2023-01-03T12:09:20.080Z,99935.55
2023-01-03T12:10:44.724Z,99941.77
2023-01-03T12:12:10.386Z,99928.72
2023-01-03T12:13:48.725Z,99919.97
2023-01-03T12:14:57.579Z,99920.94
2023-01-03T12:16:09.841Z,99926.86
2023-01-03T12:17:21.904Z,99932.28
2023-01-03T12:18:43.933Z,99943.66
2023-01-03T12:20:01.321Z,99934.20
2023-01-03T12:21:13.351Z,99921.97
2023-01-03T12:22:28.745Z,99927.76
2023-01-03T12:23:41.126Z,99921.67
2023-01-03T12:25:05.747Z,99936.34
2023-01-03T12:26:12.873Z,99919.88
2023-01-03T12:27:29.216Z,99915.91
2023-01-03T12:28:35.610Z,99931.52
2023-01-03T12:29:53.140Z,99929.00
2023-01-03T12:31:11.710Z,99915.91
2023-01-03T12:32:20.571Z,99923.40
2023-01-03T12:33:30.571Z,99927.63
2023-01-03T12:34:39.128Z,99934.75
2023-01-03T12:36:08.349Z,99929.80
2023-01-03T12:37:27.335Z,99920.17
2023-01-03T12:38:36.869Z,99933.05
2023-01-03T12:39:58.039Z,99929.26
2023-01-03T12:41:23.664Z,99944.91
2023-01-03T12:42:45.098Z,99919.04
2023-01-03T12:44:03.682Z,99921.47
2023-01-03T12:45:12.219Z,99935.84
2023-01-03T12:46:21.632Z,99926.59
2023-01-03T12:47:34.867Z,99949.86
2023-01-03T12:49:14.598Z,99939.60
2023-01-03T12:50:20.648Z,99936.69
2023-01-03T12:51:25.577Z,99931.66
2023-01-03T12:52:30.346Z,99934.19
2023-01-03T12:53:36.654Z,99931.20
2023-01-03T12:54:42.852Z,99937.11
2023-01-03T12:55:51.455Z,99935.42
2023-01-03T12:57:17.788Z,99938.24
2023-01-03T12:58:39.499Z,99945.45
2023-01-03T13:00:05.477Z,99928.48
2023-01-03T13:01:32.959Z,99937.48
2023-01-03T13:02:54.485Z,99943.56
2023-01-03T13:04:00.717Z,99938.11
2023-01-03T13:05:16.608Z,99948.43
2023-01-03T13:07:43.095Z,99948.53
2023-01-03T13:08:58.037Z,99962.44
2023-01-03T13:10:07.109Z,99953.37
2023-01-03T13:11:28.013Z,99952.16
2023-01-03T13:12:34.646Z,99966.11
2023-01-03T13:13:38.193Z,99954.62
2023-01-03T13:15:08.154Z,99969.89
2023-01-03T13:16:40.431Z,99974.15
2023-01-03T13:17:45.995Z,99964.82
2023-01-03T13:18:48.642Z,99984.22
2023-01-03T13:19:59.817Z,99982.45
2023-01-03T13:21:05.787Z,99990.86
2023-01-03T13:22:30.140Z,99978.36
2023-01-03T13:23:59.767Z,99975.03
2023-01-03T13:25:28.475Z,99984.91
2023-01-03T13:26:30.886Z,99987.61